createdAt,value
2019-04-27T00:00:14.044Z,0.0
2019-04-27T00:10:25.327Z,0.0
2019-04-27T00:20:34.852Z,0.0
2019-04-27T00:30:48.391Z,0.0
2019-04-27T00:41:02.949Z,0.0
2019-04-27T00:51:17.000Z,0.0
2019-04-27T01:01:30.938Z,0.0
2019-04-27T01:11:43.445Z,0.0
2019-04-27T01:21:55.725Z,0.0
2019-04-27T01:32:10.047Z,0.0
2019-04-27T01:42:24.019Z,0.0
2019-04-27T01:52:38.464Z,0.0
2019-04-27T02:02:51.786Z,0.0
2019-04-27T02:13:06.497Z,0.0
2019-04-27T02:23:19.760Z,0.0
2019-04-27T02:33:33.658Z,0.0
2019-04-27T02:43:49.811Z,0.0
2019-04-27T02:54:00.394Z,0.0
2019-04-27T03:04:14.369Z,0.0
2019-04-27T03:14:32.598Z,0.0
2019-04-27T03:24:39.372Z,0.0
2019-04-27T03:34:52.115Z,0.0
2019-04-27T03:45:01.726Z,8.0
2019-04-27T03:55:13.631Z,28.0
2019-04-27T04:05:24.606Z,108.0
2019-04-27T04:15:39.687Z,300.0
2019-04-27T04:25:52.599Z,620.0
2019-04-27T04:36:09.930Z,1112.0
2019-04-27T04:46:52.088Z,1744.0
2019-04-27T04:57:29.936Z,2168.0
2019-04-27T05:08:14.975Z,2784.0
2019-04-27T05:19:15.057Z,3440.0
2019-04-27T05:29:29.297Z,3932.0
2019-04-27T05:39:40.402Z,3452.0
2019-04-27T05:50:35.598Z,4220.0
2019-04-27T06:01:42.616Z,3572.0
2019-04-27T06:15:33.553Z,6012.0
2019-04-27T07:52:18.529Z,6604.0
2019-04-27T08:03:49.068Z,5380.0
2019-04-27T08:19:39.439Z,5884.0
2019-04-27T08:31:48.588Z,4100.0
2019-04-27T08:41:59.544Z,3732.0
2019-04-27T08:52:10.847Z,4764.0
2019-04-27T09:02:25.100Z,5660.0
2019-04-27T09:12:45.955Z,4516.0
2019-04-27T09:26:04.388Z,5980.0
2019-04-27T09:36:18.088Z,3784.0
2019-04-27T09:47:27.603Z,3824.0
2019-04-27T10:04:56.565Z,3392.0
2019-04-27T10:48:16.397Z,3992.0
2019-04-27T12:10:03.130Z,7780.0
2019-04-27T12:35:56.842Z,6324.0
2019-04-27T13:02:45.847Z,21856.0
2019-04-27T13:34:38.288Z,23072.0
2019-04-27T13:44:51.263Z,24928.0
2019-04-27T14:03:37.575Z,21760.0
2019-04-27T14:13:51.096Z,23680.0
2019-04-27T14:24:05.388Z,28768.0
2019-04-27T14:34:19.764Z,9812.0
2019-04-27T14:44:32.106Z,9044.0
2019-04-27T14:54:48.340Z,6616.0
2019-04-27T15:04:59.748Z,1448.0
2019-04-27T15:15:13.341Z,2768.0
2019-04-27T15:25:28.229Z,5368.0
2019-04-27T15:35:43.893Z,8636.0
2019-04-27T15:45:53.536Z,5212.0
2019-04-27T15:56:09.735Z,8008.0
2019-04-27T16:06:23.684Z,9672.0
2019-04-27T16:17:17.913Z,7000.0
2019-04-27T16:27:57.876Z,9408.0
2019-04-27T16:38:48.062Z,3576.0
2019-04-27T16:48:59.461Z,2520.0
2019-04-27T16:59:26.778Z,3380.0
2019-04-27T17:12:43.393Z,2260.0
2019-04-27T17:24:02.716Z,2236.0
2019-04-27T17:47:04.267Z,1400.0
2019-04-27T18:58:18.701Z,28.0
2019-04-27T19:08:38.595Z,8.0
2019-04-27T19:18:54.772Z,0.0
2019-04-27T19:30:10.089Z,0.0
2019-04-27T20:35:48.043Z,0.0
2019-04-27T20:48:16.930Z,0.0
2019-04-27T20:59:23.476Z,0.0
2019-04-27T21:09:37.816Z,0.0
2019-04-27T21:20:26.606Z,0.0
2019-04-27T21:30:40.915Z,0.0
2019-04-27T21:40:54.900Z,0.0
2019-04-27T21:51:09.087Z,0.0
2019-04-27T22:01:56.985Z,0.0
2019-04-27T22:12:11.237Z,0.0
2019-04-27T22:22:25.332Z,0.0
2019-04-27T22:32:41.322Z,0.0
2019-04-27T22:42:51.539Z,0.0
2019-04-27T22:55:59.150Z,0.0
2019-04-27T23:06:18.032Z,0.0
2019-04-27T23:16:32.293Z,0.0
2019-04-27T23:26:46.537Z,0.0
2019-04-27T23:36:58.031Z,0.0
2019-04-27T23:47:12.235Z,0.0
2019-04-27T23:57:40.732Z,0.0
